Latest Weather Observations for Century Mine

IDQ60801

Issued at 5:32 pm EST Saturday 25 March 2017 (issued every 30 minutes, with the page automatically refreshed every 10 minutes)

About weather observations | Map of weather stations | Latest weather observations for QLD | Other Formats
Station Details ID: 029167 Name: CENTURY MINE Lat: -18.76 Lon: 138.71 Height: 126.8 m
Data from the previous 72 hours. | See also: Recent months at Century Mine
Date/Time
EST
Temp
°C
App
Temp
°C
Dew
Point
°C
Rel
Hum
%
Delta-T
°C
Wind Press
QNH
hPa
Press
MSL
hPa
Rain since
9am
mm
Dir  Spd
km/h
Gust
km/h
Spd
kts
Gust
kts
25/05:30pm 32.8 31.6 20.0 47 8.5 NNE 26 41 14 22 1006.0 1005.1 0.0
25/05:00pm 37.3 37.6 17.8 31 12.8 ENE 13 20 7 11 1005.4 1004.5 0.0
25/04:30pm 38.1 39.0 18.5 31 13.0 ENE 11 17 6 9 1005.2 1004.3 0.0
25/04:00pm 37.9 38.5 17.8 30 13.2 E 11 20 6 11 1005.4 1004.5 0.0
25/03:30pm 37.9 37.9 17.3 29 13.4 NE 13 20 7 11 1005.7 1004.8 0.0
25/03:00pm 38.4 39.6 18.3 31 13.3 ENE 9 15 5 8 1006.1 1005.2 0.0
25/02:30pm 38.4 39.3 18.3 31 13.3 NE 11 19 6 10 1006.4 1005.5 0.0
25/02:00pm 37.6 38.4 19.0 33 12.4 NNE 13 26 7 14 1007.0 1006.1 0.0
25/01:30pm 37.5 38.8 18.5 32 12.6 ESE 9 17 5 9 1007.4 1006.5 0.0
25/01:00pm 37.0 39.1 19.0 34 12.0 SSE 6 9 3 5 1008.0 1007.1 0.0
25/12:30pm 36.3 38.4 19.3 37 11.3 NNE 7 13 4 7 1008.5 1007.6 0.0
25/12:00pm 37.1 38.9 19.5 35 11.8 NE 9 17 5 9 1009.0 1008.1 0.0
25/11:30am 35.3 37.1 18.8 37 10.9 ESE 7 15 4 8 1009.4 1008.5 0.0
25/11:00am 35.2 36.8 19.1 38 10.7 ESE 9 15 5 8 1009.7 1008.8 0.0
25/10:30am 34.1 36.0 19.7 42 9.6 ESE 9 15 5 8 1009.9 1009.0 0.0
25/10:00am 33.3 35.7 20.8 48 8.4 E 9 15 5 8 1010.0 1009.1 0.0
25/09:30am 31.6 34.2 20.5 51 7.4 NE 7 11 4 6 1010.0 1009.1 0.0
25/09:00am 29.9 32.4 20.2 56 6.4 E 7 11 4 6 1010.0 1009.1 0.0
25/08:30am 28.8 31.9 20.3 60 5.6 NE 4 7 2 4 1009.8 1008.9 0.0
25/08:00am 28.2 32.0 21.0 65 4.8 E 2 7 1 4 1009.3 1008.4 0.0
25/07:30am 25.2 29.7 22.3 84 2.0 ESE 2 6 1 3 1008.9 1008.0 0.0
25/07:00am 24.3 27.9 21.2 83 2.1 SSW 4 6 2 3 1008.5 1007.6 0.0
25/06:30am 24.4 28.6 20.9 81 2.3 CALM 0 0 0 0 1008.2 1007.3 0.0
25/06:00am 24.7 28.8 20.8 79 2.6 CALM 0 0 0 0 1007.9 1007.0 0.0
25/05:30am 24.7 28.8 20.8 79 2.6 CALM 0 0 0 0 1007.6 1006.7 0.0
25/05:00am 25.2 28.4 20.5 75 3.1 ESE 4 6 2 3 1007.2 1006.3 0.0
25/04:30am 25.8 29.2 20.1 71 3.7 E 2 7 1 4 1007.0 1006.1 0.0
25/04:00am 26.3 28.8 19.9 68 4.2 E 6 9 3 5 1006.9 1006.0 0.0
25/03:30am 26.7 28.8 20.1 67 4.3 E 9 15 5 8 1006.9 1006.0 0.0
25/03:00am 26.8 30.0 19.7 65 4.6 NNE 2 6 1 3 1006.8 1005.9 0.0
25/02:30am 26.8 29.9 19.4 64 4.8 NW 2 7 1 4 1006.8 1005.9 0.0
25/02:00am 26.6 29.3 20.2 68 4.2 WNW 6 7 3 4 1007.0 1006.1 0.0
25/01:30am 26.5 30.2 19.9 67 4.3 CALM 0 0 0 0 1007.1 1006.2 0.0
25/01:00am 27.4 30.6 19.7 63 5.0 NNW 2 7 1 4 1007.2 1006.3 0.0
25/12:30am 27.8 30.1 19.8 61 5.2 NW 7 11 4 6 1007.3 1006.4 0.0
25/12:00am 27.2 30.8 20.5 67 4.4 WNW 2 7 1 4 1007.3 1006.4 0.0
 
Date/Time
EST
Temp
°C
App
Temp
°C
Dew
Point
°C
Rel
Hum
%
Delta-T
°C
Wind Press
QNH
hPa
Press
MSL
hPa
Rain since
9am
mm
Dir  Spd
km/h
Gust
km/h
Spd
kts
Gust
kts
24/11:30pm 27.9 31.6 19.9 61 5.2 CALM 0 0 0 0 1007.5 1006.6 0.0
24/11:00pm 28.4 31.4 21.2 65 4.8 NNW 7 9 4 5 1007.5 1006.6 0.0
24/10:30pm 28.5 32.3 21.0 64 5.0 E 2 6 1 3 1007.6 1006.7 0.0
24/10:00pm 28.4 31.8 20.9 64 5.0 NW 4 7 2 4 1007.5 1006.6 0.0
24/09:30pm 28.5 33.1 21.8 67 4.5 CALM 0 0 0 0 1007.1 1006.2 0.0
24/09:00pm 29.0 33.5 21.5 64 5.1 CALM 0 0 0 0 1007.0 1006.1 0.0
24/08:30pm 30.3 34.2 21.1 58 6.2 ESE 2 6 1 3 1006.7 1005.8 0.0
24/08:00pm 30.5 34.6 20.7 55 6.6 CALM 0 0 0 0 1006.4 1005.5 0.0
24/07:30pm 31.3 35.3 20.6 53 7.2 CALM 0 0 0 0 1006.0 1005.1 0.0
24/07:00pm 32.3 35.6 19.2 46 8.6 CALM 0 0 0 0 1005.5 1004.6 0.0
24/06:30pm 34.7 37.1 17.9 37 10.9 NNW 2 6 1 3 1005.3 1004.4 0.0
24/06:00pm 37.6 39.7 18.1 32 12.9 WSW 4 7 2 4 1004.9 1004.0 0.0
24/05:30pm 35.2 37.2 17.9 36 11.3 WSW 4 7 2 4 1004.8 1003.9 0.0
24/05:00pm 35.7 37.1 16.4 31 12.4 SSW 4 7 2 4 1004.8 1003.9 0.0
24/04:30pm 36.8 38.7 15.8 28 13.4 CALM 0 2 0 1 1004.9 1004.0 0.0
24/04:00pm 36.2 36.8 15.3 28 13.2 SSW 6 7 3 4 1005.0 1004.1 0.0
24/03:30pm 35.5 33.6 14.2 28 13.2 SSE 17 26 9 14 1005.3 1004.4 0.0
24/03:00pm 40.2 39.8 15.1 23 16.0 S 11 20 6 11 1005.5 1004.6 0.0
24/02:30pm 38.1 38.3 14.6 24 14.8 SSE 7 15 4 8 1005.8 1004.9 0.0
24/02:00pm 38.5 38.7 14.3 23 15.2 NNE 6 11 3 6 1006.2 1005.3 0.0
24/01:30pm 38.1 38.7 15.2 25 14.5 SSE 6 15 3 8 1006.9 1006.0 0.0
24/01:00pm 38.8 40.1 17.5 28 14.0 N 7 11 4 6 1007.3 1006.4 0.0
24/12:30pm 37.2 38.3 17.2 30 13.0 WSW 7 13 4 7 1007.9 1007.0 0.0
24/12:00pm 36.9 37.0 17.5 32 12.7 SW 13 26 7 14 1008.4 1007.5 0.0
24/11:30am 36.2 36.1 17.8 33 12.0 SW 15 20 8 11 1009.0 1008.1 0.0
24/11:00am 35.8 35.6 18.4 35 11.4 SW 17 24 9 13 1009.5 1008.6 0.0
24/10:30am 34.8 34.7 18.8 39 10.5 SW 17 24 9 13 1009.7 1008.8 0.0
24/10:00am 34.1 35.0 20.1 43 9.4 SW 15 22 8 12 1009.8 1008.9 0.0
24/09:30am 33.4 34.9 19.8 44 9.0 SW 11 17 6 9 1009.8 1008.9 0.0
24/09:00am 31.9 33.5 19.9 49 8.0 WSW 11 15 6 8 1009.7 1008.8 0.2
24/08:30am 31.1 33.3 20.4 53 7.1 WSW 9 13 5 7 1009.5 1008.6 0.2
24/08:00am 29.5 31.7 20.4 58 6.0 WSW 9 13 5 7 1009.1 1008.2 0.2
24/07:30am 27.9 30.2 20.7 65 4.8 SW 9 17 5 9 1008.8 1007.9 0.2
24/07:00am 27.0 29.4 20.1 66 4.5 W 7 13 4 7 1008.8 1007.9 0.2
24/06:30am 26.5 29.2 20.3 68 4.1 W 6 15 3 8 1008.6 1007.7 0.2
24/06:00am 26.7 29.1 20.1 67 4.3 W 7 9 4 5 1008.3 1007.4 0.2
24/05:30am 27.8 30.0 20.4 64 4.9 W 9 17 5 9 1008.1 1007.2 0.2
24/05:00am 27.4 29.8 20.0 64 4.9 WSW 7 11 4 6 1008.1 1007.2 0.2
24/04:30am 27.7 29.7 20.0 63 5.1 W 9 15 5 8 1008.0 1007.1 0.2
24/04:00am 26.7 29.1 20.1 67 4.3 SW 7 11 4 6 1007.9 1007.0 0.2
24/03:30am 26.3 30.0 19.9 68 4.2 CALM 0 6 0 3 1008.0 1007.1 0.2
24/03:00am 27.3 29.5 20.4 66 4.6 WNW 9 15 5 8 1008.0 1007.1 0.2
24/02:30am 26.2 30.3 20.8 72 3.6 CALM 0 6 0 3 1008.1 1007.2 0.2
24/02:00am 25.9 29.9 20.5 72 3.6 CALM 0 0 0 0 1008.1 1007.2 0.2
24/01:30am 26.6 29.4 20.4 69 4.1 NE 6 7 3 4 1008.3 1007.4 0.2
24/01:00am 26.6 29.9 20.0 67 4.3 NNE 2 6 1 3 1008.4 1007.5 0.2
24/12:30am 27.1 29.7 20.0 65 4.7 NNE 6 7 3 4 1008.6 1007.7 0.2
24/12:00am 27.7 30.8 19.5 61 5.4 N 2 7 1 4 1008.9 1008.0 0.2
 
Date/Time
EST
Temp
°C
App
Temp
°C
Dew
Point
°C
Rel
Hum
%
Delta-T
°C
Wind Press
QNH
hPa
Press
MSL
hPa
Rain since
9am
mm
Dir  Spd
km/h
Gust
km/h
Spd
kts
Gust
kts
23/11:30pm 28.5 30.6 19.4 57 5.9 NNE 7 9 4 5 1009.0 1008.1 0.2
23/11:00pm 29.5 31.7 19.2 54 6.7 NNW 6 7 3 4 1008.9 1008.0 0.2
23/10:30pm 30.0 32.1 19.4 53 6.9 NW 7 9 4 5 1009.0 1008.1 0.2
23/10:00pm 29.8 33.7 20.4 57 6.3 CALM 0 0 0 0 1009.1 1008.2 0.2
23/09:30pm 31.0 32.9 19.0 48 7.8 NNW 7 9 4 5 1008.6 1007.7 0.2
23/09:00pm 31.2 33.9 19.5 49 7.7 WNW 4 7 2 4 1008.4 1007.5 0.2
23/08:30pm 32.5 34.3 18.3 43 9.2 N 6 9 3 5 1008.2 1007.3 0.2
23/08:00pm 32.6 34.1 17.6 40 9.7 ENE 6 7 3 4 1007.7 1006.8 0.2
23/07:30pm 33.3 34.2 16.6 36 10.6 E 7 9 4 5 1007.3 1006.4 0.2
23/07:00pm 34.1 34.8 15.5 32 11.7 SE 6 11 3 6 1006.9 1006.0 0.2
23/06:30pm 36.0 36.7 15.7 30 12.9 SE 6 7 3 4 1006.7 1005.8 0.2
23/06:00pm 37.0 38.1 16.5 29 13.2 E 6 11 3 6 1006.2 1005.3 0.2
23/05:30pm 37.8 38.9 16.7 29 13.6 ESE 6 13 3 7 1006.2 1005.3 0.2
23/05:00pm 37.4 37.8 16.4 29 13.5 E 9 15 5 8 1006.1 1005.2 0.2
23/04:30pm 38.1 37.6 15.8 26 14.2 E 13 20 7 11 1006.1 1005.2 0.2
23/04:00pm 39.0 39.5 16.6 27 14.5 E 9 17 5 9 1006.2 1005.3 0.2
23/03:30pm 39.1 39.6 15.5 25 15.1 E 7 13 4 7 1006.6 1005.7 0.2
23/03:00pm 38.7 39.1 16.3 26 14.5 E 9 13 5 7 1007.0 1006.1 0.2
23/02:30pm 38.4 38.7 16.1 27 14.3 SE 9 17 5 9 1007.3 1006.4 0.2
23/02:00pm 38.2 38.7 16.5 28 14.0 ESE 9 15 5 8 1007.7 1006.8 0.2
23/01:30pm 37.9 39.5 18.3 31 12.9 ENE 7 13 4 7 1008.3 1007.4 0.2
23/01:00pm 37.4 38.5 17.9 31 12.8 S 9 15 5 8 1008.9 1008.0 0.2
23/12:30pm 37.0 37.2 17.6 32 12.7 SSE 13 20 7 11 1009.5 1008.6 0.2
23/12:00pm 35.9 36.1 18.5 36 11.5 S 15 22 8 12 1009.9 1009.0 0.2
23/11:30am 35.3 34.5 17.0 33 11.8 S 17 22 9 12 1010.5 1009.6 0.2
23/11:00am 34.4 34.4 17.2 36 11.1 SSW 13 22 7 12 1010.7 1009.8 0.2
23/10:30am 34.0 34.6 17.7 38 10.6 SSW 11 19 6 10 1011.0 1010.1 0.2
23/10:00am 32.5 32.6 17.5 40 9.6 SSW 13 20 7 11 1011.2 1010.3 0.2
23/09:30am 31.7 32.9 19.0 47 8.3 SSW 11 17 6 9 1011.4 1010.5 0.2
23/09:00am 30.8 31.7 18.5 47 8.0 SSW 11 20 6 11 1011.4 1010.5 0.0
23/08:30am 30.3 31.5 19.0 50 7.4 SW 11 15 6 8 1011.4 1010.5 0.0
23/08:00am 28.9 30.8 19.8 58 6.0 SW 9 13 5 7 1011.2 1010.3 0.0
23/07:30am 26.6 30.8 22.4 78 2.8 S 4 9 2 5 1010.9 1010.0 0.0
23/07:00am 25.5 30.5 23.9 91 1.1 WSW 4 7 2 4 1010.6 1009.7 0.0
23/06:30am 25.4 30.6 23.6 90 1.2 SE 2 6 1 3 1010.3 1009.4 0.0
23/06:00am 25.4 30.6 23.5 89 1.3 SSW 2 7 1 4 1009.7 1008.8 0.0
23/05:30am 26.0 30.5 23.7 87 1.6 N 6 7 3 4 1009.4 1008.5 0.0
23/05:00am 26.1 31.6 23.4 85 1.9 CALM 0 0 0 0 1009.6 1008.7 0.0
23/04:30am 26.5 32.0 23.4 83 2.1 CALM 0 6 0 3 1009.1 1008.2 0.0
23/04:00am 26.7 30.5 23.4 82 2.3 WSW 9 13 5 7 1009.1 1008.2 0.0
23/03:30am 26.8 31.1 23.7 83 2.1 W 7 11 4 6 1009.0 1008.1 0.0
23/03:00am 27.1 31.0 23.6 81 2.4 WNW 9 13 5 7 1008.8 1007.9 0.0
23/02:30am 27.5 31.8 23.3 78 2.9 WNW 6 9 3 5 1008.9 1008.0 0.0
23/02:00am 28.1 31.8 23.2 74 3.4 N 9 11 5 6 1009.0 1008.1 0.0
23/01:30am 28.4 31.0 23.3 74 3.5 N 15 20 8 11 1009.4 1008.5 0.0
23/01:00am 28.5 30.9 23.0 72 3.8 N 15 20 8 11 1009.9 1009.0 0.0
23/12:30am 28.9 31.4 23.1 71 4.0 N 15 20 8 11 1010.0 1009.1 0.0
23/12:00am 29.0 31.3 22.7 69 4.3 NNE 15 24 8 13 1009.8 1008.9 0.0
 
Date/Time
EST
Temp
°C
App
Temp
°C
Dew
Point
°C
Rel
Hum
%
Delta-T
°C
Wind Press
QNH
hPa
Press
MSL
hPa
Rain since
9am
mm
Dir  Spd
km/h
Gust
km/h
Spd
kts
Gust
kts
22/11:30pm 29.0 30.6 20.7 61 5.5 N 13 19 7 10 1009.3 1008.4 0.0
22/11:00pm 28.3 30.2 19.8 60 5.6 NE 9 13 5 7 1009.6 1008.7 0.0
22/10:30pm 27.9 29.0 18.9 58 5.8 NNE 11 15 6 8 1009.2 1008.3 0.0
22/10:00pm 26.9 28.4 19.8 65 4.6 NNE 11 15 6 8 1009.8 1008.9 0.0
22/09:30pm 27.6 29.3 18.6 58 5.8 SSW 7 13 4 7 1009.5 1008.6 0.0
22/09:00pm 28.6 26.5 16.2 47 7.7 SSW 22 35 12 19 1010.1 1009.2 0.0
22/08:30pm 30.6 32.8 19.6 51 7.2 WSW 7 9 4 5 1009.0 1008.1 0.0
22/08:00pm 31.9 34.1 19.5 47 8.2 NNW 7 11 4 6 1008.3 1007.4 0.0
22/07:30pm 32.4 34.1 19.3 46 8.6 N 9 13 5 7 1007.6 1006.7 0.0
22/07:00pm 32.6 34.8 19.1 44 8.9 NE 6 7 3 4 1007.1 1006.2 0.0
22/06:30pm 33.8 35.8 19.1 42 9.7 NNE 7 11 4 6 1006.6 1005.7 0.0
22/06:00pm 35.7 37.1 17.4 33 11.9 NE 6 13 3 7 1006.3 1005.4 0.0

Other Formats:

Comma delimited format used in spreadsheet applications
http://www.bom.gov.au/fwo/IDQ60801/IDQ60801.94261.axf

JavaScript Object Notation format (JSON) in row-major order
http://www.bom.gov.au/fwo/IDQ60801/IDQ60801.94261.json